createdAt,value
2022-11-17T00:00:45.211Z,20.70
2022-11-17T00:03:15.837Z,22.10
2022-11-17T00:05:44.777Z,20.40
2022-11-17T00:08:13.044Z,19.60
2022-11-17T00:10:41.143Z,18.90
2022-11-17T00:13:29.106Z,18.90
2022-11-17T00:15:57.116Z,16.40
2022-11-17T00:18:43.807Z,17.60
2022-11-17T00:21:19.322Z,18.80
2022-11-17T00:23:48.280Z,15.50
2022-11-17T00:26:31.793Z,17.60
2022-11-17T00:29:02.990Z,16.60
2022-11-17T00:31:52.374Z,18.30
2022-11-17T00:34:23.172Z,17.80
2022-11-17T00:36:53.816Z,16.40
2022-11-17T00:39:23.088Z,17.30
2022-11-17T00:41:51.201Z,17.80
2022-11-17T00:44:19.141Z,17.70
2022-11-17T00:46:47.390Z,18.20
2022-11-17T00:49:15.443Z,17.40
2022-11-17T00:51:43.482Z,17.60
2022-11-17T00:54:13.174Z,17.70
2022-11-17T00:56:41.240Z,14.20
2022-11-17T00:59:09.630Z,18.70
2022-11-17T01:01:38.152Z,17.60
2022-11-17T01:04:07.327Z,17.80
2022-11-17T01:06:38.723Z,15.70
2022-11-17T01:09:23.810Z,16.80
2022-11-17T01:11:53.566Z,13.60
2022-11-17T01:14:25.557Z,18.10
2022-11-17T01:16:54.827Z,16.30
2022-11-17T01:19:24.081Z,16.20
2022-11-17T01:21:52.455Z,13.40
2022-11-17T01:24:20.436Z,14.10
2022-11-17T01:26:50.768Z,16.00
2022-11-17T01:29:18.886Z,15.10
2022-11-17T01:31:50.904Z,14.80
2022-11-17T01:34:19.727Z,15.40
2022-11-17T01:37:06.525Z,16.00
2022-11-17T01:39:34.670Z,15.30
2022-11-17T01:42:05.099Z,15.30
2022-11-17T01:44:36.325Z,16.20
2022-11-17T01:47:06.361Z,14.10
2022-11-17T01:49:34.423Z,15.00
2022-11-17T01:52:07.562Z,14.30
2022-11-17T01:54:40.857Z,13.00
2022-11-17T01:57:24.091Z,14.40
2022-11-17T02:00:07.763Z,14.10
2022-11-17T02:02:38.727Z,14.00
2022-11-17T02:05:22.434Z,12.30
2022-11-17T02:07:55.457Z,13.00
2022-11-17T02:10:23.760Z,12.90
2022-11-17T02:12:54.927Z,15.60
2022-11-17T02:15:24.445Z,14.20
2022-11-17T02:17:53.133Z,15.20
2022-11-17T02:20:29.668Z,16.00
2022-11-17T02:23:16.269Z,13.30
2022-11-17T02:26:25.874Z,16.60
2022-11-17T02:29:09.886Z,16.10
2022-11-17T02:31:53.095Z,14.00
2022-11-17T02:34:50.480Z,15.50
2022-11-17T02:37:46.241Z,15.90
2022-11-17T02:40:23.707Z,16.30
2022-11-17T02:43:17.895Z,14.90
2022-11-17T02:45:56.579Z,18.30
2022-11-17T02:48:48.526Z,16.80
2022-11-17T02:51:21.526Z,18.70
2022-11-17T02:53:56.450Z,17.20
2022-11-17T02:56:25.049Z,18.10
2022-11-17T02:59:00.372Z,19.50
2022-11-17T03:01:53.499Z,18.20
2022-11-17T03:04:54.522Z,20.20
2022-11-17T03:07:35.189Z,19.80
2022-11-17T03:10:15.261Z,18.70
2022-11-17T03:12:50.710Z,20.70
2022-11-17T03:18:12.342Z,18.30
2022-11-17T03:21:06.387Z,20.20
2022-11-17T03:23:35.088Z,19.50
2022-11-17T03:26:07.881Z,21.90
2022-11-17T03:28:37.413Z,22.60
2022-11-17T03:31:09.481Z,20.50
2022-11-17T03:33:41.077Z,21.80
2022-11-17T03:36:15.978Z,21.30
2022-11-17T03:38:52.732Z,22.10
2022-11-17T03:41:23.572Z,21.40
2022-11-17T03:43:55.865Z,22.70
2022-11-17T03:46:26.765Z,18.80
2022-11-17T03:49:18.586Z,22.50
2022-11-17T03:51:47.009Z,21.80
2022-11-17T03:54:15.839Z,22.70
2022-11-17T03:57:16.015Z,17.60
2022-11-17T03:59:53.679Z,22.00
2022-11-17T04:02:24.350Z,21.90
2022-11-17T04:05:07.632Z,21.60
2022-11-17T04:07:44.346Z,21.40
2022-11-17T04:10:15.832Z,21.90
2022-11-17T04:13:02.421Z,22.00
2022-11-17T04:15:49.159Z,20.10
2022-11-17T04:18:17.310Z,21.20
2022-11-17T04:20:46.193Z,21.90
2022-11-17T04:23:15.331Z,21.50
2022-11-17T04:26:03.006Z,20.90
2022-11-17T04:28:39.553Z,22.90
2022-11-17T04:31:10.470Z,21.30
2022-11-17T04:33:41.889Z,21.80
2022-11-17T04:36:12.117Z,23.40
2022-11-17T04:38:45.059Z,21.60
2022-11-17T04:41:33.381Z,21.70
2022-11-17T04:44:02.107Z,24.20
2022-11-17T04:46:31.852Z,22.90
2022-11-17T04:49:00.822Z,23.50
2022-11-17T04:51:29.977Z,23.30
2022-11-17T04:53:58.311Z,22.30
2022-11-17T04:56:27.834Z,22.20
2022-11-17T04:58:55.935Z,24.30
2022-11-17T05:01:25.979Z,22.70
2022-11-17T05:03:59.956Z,22.50
2022-11-17T05:06:33.874Z,24.30
2022-11-17T05:09:04.686Z,26.10
2022-11-17T05:11:51.178Z,24.40
2022-11-17T05:14:21.383Z,25.60
2022-11-17T05:17:09.875Z,26.80
2022-11-17T05:19:41.881Z,32.00
2022-11-17T05:22:30.597Z,30.40
2022-11-17T05:24:59.286Z,26.60
2022-11-17T05:27:28.024Z,26.00
2022-11-17T05:29:56.025Z,25.80
2022-11-17T05:32:24.160Z,25.20
2022-11-17T05:34:52.209Z,23.40
2022-11-17T05:37:20.237Z,23.00
2022-11-17T05:39:48.288Z,23.70
2022-11-17T05:42:16.392Z,24.30
2022-11-17T05:44:44.490Z,23.00
2022-11-17T05:47:13.165Z,22.70
2022-11-17T05:49:41.246Z,23.60
2022-11-17T05:52:09.718Z,24.20
2022-11-17T05:54:37.843Z,23.20
2022-11-17T05:57:15.506Z,23.50
2022-11-17T05:59:57.398Z,23.70
2022-11-17T06:02:33.427Z,24.60
2022-11-17T06:05:03.396Z,23.30
2022-11-17T06:07:31.942Z,26.50
2022-11-17T06:10:00.752Z,26.40
2022-11-17T06:12:29.340Z,23.50
2022-11-17T06:14:57.810Z,23.60
2022-11-17T06:17:36.712Z,21.40
2022-11-17T06:20:10.758Z,21.20
2022-11-17T06:22:41.839Z,20.90
2022-11-17T06:25:13.960Z,21.10
2022-11-17T06:27:42.252Z,21.60
2022-11-17T06:30:11.051Z,21.20
2022-11-17T06:32:43.301Z,21.90
2022-11-17T06:35:14.587Z,21.60
2022-11-17T06:37:43.860Z,21.90
2022-11-17T06:40:13.687Z,21.60
2022-11-17T06:43:00.693Z,19.80
2022-11-17T06:45:29.797Z,20.40
2022-11-17T06:47:57.950Z,20.90
2022-11-17T06:50:26.655Z,20.50
2022-11-17T06:53:04.083Z,19.30
2022-11-17T06:55:32.950Z,20.50
2022-11-17T06:58:04.037Z,21.00
2022-11-17T07:00:33.828Z,20.90
2022-11-17T07:03:05.857Z,21.10
2022-11-17T07:05:35.765Z,19.80
2022-11-17T07:08:08.338Z,20.20
2022-11-17T07:10:37.134Z,19.70
2022-11-17T07:13:05.231Z,20.80
2022-11-17T07:15:33.445Z,20.60
2022-11-17T07:18:01.458Z,20.80
2022-11-17T07:20:30.431Z,20.10
2022-11-17T07:23:00.294Z,21.70
2022-11-17T07:25:28.630Z,21.10
2022-11-17T07:28:00.769Z,20.80
2022-11-17T07:30:29.561Z,20.30
2022-11-17T07:33:00.728Z,21.90
2022-11-17T07:35:29.515Z,21.20
2022-11-17T07:38:02.113Z,20.00
2022-11-17T07:40:32.466Z,18.90
2022-11-17T07:43:01.528Z,18.20
2022-11-17T07:45:32.341Z,19.20
2022-11-17T07:48:04.023Z,19.20
2022-11-17T07:50:33.244Z,19.30
2022-11-17T07:53:01.473Z,18.10
2022-11-17T07:55:29.982Z,19.10
2022-11-17T07:57:59.999Z,20.00
2022-11-17T08:00:30.908Z,18.90
2022-11-17T08:03:04.375Z,19.90
2022-11-17T08:05:43.675Z,19.80
2022-11-17T08:08:13.770Z,19.90
2022-11-17T08:10:43.416Z,19.20
2022-11-17T08:13:13.377Z,19.10
2022-11-17T08:15:41.923Z,17.70
2022-11-17T08:18:10.586Z,18.40
2022-11-17T08:20:39.087Z,18.00
2022-11-17T08:23:08.296Z,18.10
2022-11-17T08:25:36.564Z,18.60
2022-11-17T08:28:05.124Z,18.20
2022-11-17T08:30:36.545Z,16.40
2022-11-17T08:33:05.842Z,18.10
2022-11-17T08:35:37.622Z,17.40
2022-11-17T08:38:07.146Z,17.60
2022-11-17T08:40:35.549Z,17.80
2022-11-17T08:43:04.448Z,17.80
2022-11-17T08:45:32.877Z,16.70
2022-11-17T08:48:01.478Z,16.20
2022-11-17T08:50:29.922Z,16.70
2022-11-17T08:52:59.872Z,14.60
2022-11-17T08:55:28.351Z,14.70
2022-11-17T08:57:56.649Z,15.20
2022-11-17T09:00:25.281Z,14.10
2022-11-17T09:02:54.686Z,14.60
2022-11-17T09:05:25.433Z,13.40
2022-11-17T09:07:54.648Z,14.30
2022-11-17T09:10:23.598Z,14.80
2022-11-17T09:12:56.136Z,13.70
2022-11-17T09:15:24.940Z,14.50
2022-11-17T09:17:53.368Z,13.20
2022-11-17T09:20:22.201Z,12.40
2022-11-17T09:22:50.853Z,10.90
2022-11-17T09:25:19.346Z,10.80
2022-11-17T09:27:50.305Z,9.80
2022-11-17T09:30:22.369Z,10.50
2022-11-17T09:32:51.668Z,8.80
2022-11-17T09:35:20.225Z,9.10
2022-11-17T09:37:48.581Z,8.10
2022-11-17T09:40:20.049Z,9.10
2022-11-17T09:42:48.865Z,8.50
2022-11-17T09:45:23.367Z,5.20
2022-11-17T09:48:18.610Z,3.70
2022-11-17T09:50:50.879Z,2.60
2022-11-17T09:53:44.204Z,2.10
2022-11-17T09:56:15.390Z,1.60
2022-11-17T09:59:01.768Z,1.50
2022-11-17T10:01:31.141Z,1.60
2022-11-17T10:04:01.701Z,1.70
2022-11-17T10:06:32.086Z,1.70
2022-11-17T10:09:03.077Z,1.50
2022-11-17T10:11:38.431Z,1.60
2022-11-17T10:14:15.898Z,1.50
2022-11-17T10:16:50.215Z,0.90
2022-11-17T10:19:20.239Z,1.30
2022-11-17T10:22:08.737Z,1.10
2022-11-17T10:24:40.968Z,1.30
2022-11-17T10:27:35.635Z,1.50
2022-11-17T10:30:23.468Z,1.40
2022-11-17T10:33:00.401Z,1.10
2022-11-17T10:35:34.698Z,1.20
2022-11-17T10:38:06.067Z,1.00
2022-11-17T10:40:41.304Z,1.10
2022-11-17T10:43:12.332Z,1.20
2022-11-17T10:45:51.672Z,1.20
2022-11-17T10:48:41.086Z,1.30
2022-11-17T10:51:15.719Z,1.10
2022-11-17T10:53:46.688Z,1.10
2022-11-17T10:56:21.325Z,1.60
2022-11-17T10:58:58.012Z,1.70
2022-11-17T11:01:32.998Z,1.60
2022-11-17T11:04:02.700Z,1.40
2022-11-17T11:06:33.590Z,1.40
2022-11-17T11:09:11.475Z,1.50
2022-11-17T11:12:03.101Z,1.60
2022-11-17T11:14:44.065Z,1.70
2022-11-17T11:17:15.872Z,1.90
2022-11-17T11:19:53.140Z,1.70
2022-11-17T11:22:57.873Z,1.70
2022-11-17T11:25:43.323Z,2.00
2022-11-17T11:28:46.351Z,1.70
2022-11-17T11:31:35.301Z,1.80
2022-11-17T11:34:49.038Z,1.80
2022-11-17T11:37:25.588Z,2.00
2022-11-17T11:40:00.594Z,2.30
2022-11-17T11:42:28.830Z,2.50
2022-11-17T11:45:12.562Z,2.00
2022-11-17T11:48:02.862Z,1.90
2022-11-17T11:50:51.431Z,2.40
2022-11-17T11:53:35.623Z,2.30
2022-11-17T11:56:17.190Z,2.50
2022-11-17T11:58:59.944Z,2.50
2022-11-17T12:01:53.325Z,2.40
2022-11-17T12:04:46.723Z,2.40
2022-11-17T12:07:28.123Z,2.30
2022-11-17T12:10:04.198Z,2.50
2022-11-17T12:12:46.249Z,2.20
2022-11-17T12:15:20.841Z,2.40
2022-11-17T12:17:52.583Z,2.30
2022-11-17T12:20:39.528Z,2.00
2022-11-17T12:23:29.906Z,1.60
2022-11-17T12:26:00.869Z,2.90
2022-11-17T12:28:38.576Z,2.80
2022-11-17T12:31:11.397Z,2.00
2022-11-17T12:33:55.644Z,1.30
2022-11-17T12:36:29.795Z,1.40
2022-11-17T12:39:02.651Z,1.90
2022-11-17T12:41:49.349Z,2.10
2022-11-17T12:44:46.226Z,2.00
2022-11-17T12:47:24.263Z,1.20
2022-11-17T12:50:32.428Z,1.80
2022-11-17T12:53:15.683Z,1.70
2022-11-17T12:56:17.035Z,2.00
2022-11-17T12:58:49.059Z,2.00
2022-11-17T13:01:36.413Z,1.80
2022-11-17T13:04:17.146Z,1.90
2022-11-17T13:07:01.038Z,1.70
2022-11-17T13:09:33.936Z,2.20
2022-11-17T13:12:08.389Z,2.60
2022-11-17T13:14:53.166Z,2.80
2022-11-17T13:17:33.972Z,2.10
2022-11-17T13:20:29.084Z,2.80
2022-11-17T13:23:07.472Z,2.00
2022-11-17T13:25:36.207Z,2.40
2022-11-17T13:28:05.638Z,2.20
2022-11-17T13:30:34.771Z,2.20
2022-11-17T13:33:05.096Z,2.20
2022-11-17T13:35:37.450Z,2.30
2022-11-17T13:38:21.509Z,2.20
2022-11-17T13:40:54.028Z,1.70
2022-11-17T13:43:27.386Z,2.50
2022-11-17T13:45:56.681Z,2.90
2022-11-17T13:48:38.258Z,2.30
2022-11-17T13:51:29.657Z,2.30
2022-11-17T13:54:08.157Z,2.20
2022-11-17T13:56:50.750Z,2.40
2022-11-17T13:59:30.513Z,2.10
2022-11-17T14:02:17.395Z,2.60
2022-11-17T14:05:20.309Z,2.80
2022-11-17T14:07:53.935Z,2.30
2022-11-17T14:10:22.891Z,2.20
2022-11-17T14:12:53.095Z,1.70
2022-11-17T14:15:21.550Z,2.20
2022-11-17T14:17:58.585Z,2.10
2022-11-17T14:20:33.611Z,2.40
2022-11-17T14:23:10.058Z,2.00
2022-11-17T14:25:48.930Z,2.90
2022-11-17T14:28:21.181Z,2.10
2022-11-17T14:30:52.647Z,2.40
2022-11-17T14:33:22.040Z,2.00
2022-11-17T14:35:58.886Z,2.40
2022-11-17T14:38:27.402Z,1.70
2022-11-17T14:40:56.388Z,1.50
2022-11-17T14:43:25.394Z,1.40
2022-11-17T14:45:54.343Z,1.60
2022-11-17T14:48:23.373Z,1.70
2022-11-17T14:50:57.553Z,1.80
2022-11-17T14:53:27.378Z,2.50
2022-11-17T14:55:56.432Z,2.20
2022-11-17T14:58:25.330Z,2.50
2022-11-17T15:00:53.817Z,1.60
2022-11-17T15:03:23.561Z,1.90
2022-11-17T15:05:52.252Z,2.20
2022-11-17T15:08:20.826Z,2.00
2022-11-17T15:10:51.909Z,2.00
2022-11-17T15:13:21.207Z,2.10
2022-11-17T15:15:50.871Z,2.50
2022-11-17T15:18:19.935Z,2.60
2022-11-17T15:20:48.975Z,2.60
2022-11-17T15:23:18.148Z,2.50
2022-11-17T15:25:46.713Z,2.50
2022-11-17T15:28:22.368Z,2.50
2022-11-17T15:30:52.677Z,2.40
2022-11-17T15:33:21.457Z,2.00
2022-11-17T15:36:02.007Z,2.50
2022-11-17T15:38:31.902Z,2.70
2022-11-17T15:41:00.476Z,2.90
2022-11-17T15:43:30.569Z,2.60
2022-11-17T15:46:06.599Z,2.40
2022-11-17T15:48:45.271Z,2.60
2022-11-17T15:51:16.636Z,2.90
2022-11-17T15:53:47.377Z,2.80
2022-11-17T15:56:21.640Z,3.20
2022-11-17T15:59:01.880Z,3.20
2022-11-17T16:01:33.459Z,3.10
2022-11-17T16:04:03.741Z,2.60
2022-11-17T16:06:34.564Z,2.70
2022-11-17T16:09:05.334Z,2.90
2022-11-17T16:11:34.964Z,3.20
2022-11-17T16:14:05.124Z,3.30
2022-11-17T16:16:36.993Z,3.50
2022-11-17T16:19:06.560Z,3.70
2022-11-17T16:21:35.282Z,4.00
2022-11-17T16:24:03.682Z,3.90
2022-11-17T16:26:33.515Z,3.80
2022-11-17T16:29:07.442Z,4.20
2022-11-17T16:31:38.306Z,4.60
2022-11-17T16:34:13.099Z,4.50
2022-11-17T16:36:43.691Z,4.40
2022-11-17T16:39:17.627Z,4.60
2022-11-17T16:41:48.725Z,4.60
2022-11-17T16:44:19.570Z,5.50
2022-11-17T16:46:51.224Z,5.50
2022-11-17T16:49:20.816Z,5.80
2022-11-17T16:51:55.126Z,6.70
2022-11-17T16:54:23.627Z,6.70
2022-11-17T16:56:52.217Z,7.10
2022-11-17T16:59:21.129Z,6.60
2022-11-17T17:01:49.884Z,6.60
2022-11-17T17:04:18.559Z,6.30
2022-11-17T17:06:46.718Z,6.30
2022-11-17T17:09:16.030Z,6.20
2022-11-17T17:11:44.969Z,6.90
2022-11-17T17:14:15.486Z,6.00
2022-11-17T17:16:44.186Z,6.20
2022-11-17T17:19:14.455Z,6.20
2022-11-17T17:21:44.361Z,6.40
2022-11-17T17:24:13.413Z,6.30
2022-11-17T17:26:42.513Z,7.40
2022-11-17T17:29:13.816Z,6.90
2022-11-17T17:31:42.814Z,6.90
2022-11-17T17:34:13.504Z,6.20
2022-11-17T17:36:42.136Z,7.60
2022-11-17T17:39:18.300Z,8.00
2022-11-17T17:41:47.140Z,7.70
2022-11-17T17:44:18.872Z,8.00
2022-11-17T17:46:47.406Z,8.40
2022-11-17T17:49:16.426Z,8.60
2022-11-17T17:51:45.824Z,9.10
2022-11-17T17:54:20.030Z,9.00
2022-11-17T17:56:49.042Z,9.80
2022-11-17T17:59:18.304Z,7.20
2022-11-17T18:01:48.406Z,8.10
2022-11-17T18:04:17.419Z,8.10
2022-11-17T18:06:48.711Z,8.50
2022-11-17T18:09:20.717Z,8.60
2022-11-17T18:11:51.150Z,8.40
2022-11-17T18:14:25.037Z,7.20
2022-11-17T18:16:54.225Z,8.10
2022-11-17T18:19:23.983Z,8.80
2022-11-17T18:21:54.677Z,9.20
2022-11-17T18:24:22.983Z,8.60
2022-11-17T18:26:51.455Z,9.10
2022-11-17T18:29:20.328Z,8.80
2022-11-17T18:31:49.640Z,9.00
2022-11-17T18:34:21.781Z,9.70
2022-11-17T18:36:51.891Z,7.90
2022-11-17T18:39:21.091Z,9.00
2022-11-17T18:41:49.428Z,9.20
2022-11-17T18:44:20.317Z,10.70
2022-11-17T18:46:48.987Z,11.50
2022-11-17T18:49:19.424Z,11.00
2022-11-17T18:51:50.310Z,11.20
2022-11-17T18:54:18.686Z,11.70
2022-11-17T18:56:46.960Z,11.30
2022-11-17T18:59:15.687Z,10.30
2022-11-17T19:01:45.629Z,10.00
2022-11-17T19:04:14.752Z,10.70
2022-11-17T19:06:43.236Z,9.10
2022-11-17T19:09:11.902Z,9.60
2022-11-17T19:11:40.203Z,9.50
2022-11-17T19:14:08.335Z,9.60
2022-11-17T19:16:44.379Z,8.90
2022-11-17T19:19:15.745Z,10.40
2022-11-17T19:21:44.560Z,9.50
2022-11-17T19:24:14.182Z,9.30
2022-11-17T19:26:43.327Z,9.90
2022-11-17T19:29:17.157Z,10.60
2022-11-17T19:31:47.593Z,9.10
2022-11-17T19:34:16.517Z,9.70
2022-11-17T19:36:45.698Z,9.40
2022-11-17T19:39:14.885Z,10.30
2022-11-17T19:41:45.490Z,11.20
2022-11-17T19:44:14.064Z,11.90
2022-11-17T19:46:43.582Z,12.00
2022-11-17T19:49:12.669Z,13.30
2022-11-17T19:51:42.323Z,11.30
2022-11-17T19:54:13.430Z,12.90
2022-11-17T19:56:41.831Z,13.30
2022-11-17T19:59:15.658Z,12.40
2022-11-17T20:01:46.439Z,20.00
2022-11-17T20:04:14.995Z,13.60
2022-11-17T20:06:43.513Z,15.10
2022-11-17T20:09:15.064Z,13.90
2022-11-17T20:11:43.722Z,13.50
2022-11-17T20:14:12.296Z,12.70
2022-11-17T20:16:40.767Z,10.90
2022-11-17T20:19:09.391Z,15.60
2022-11-17T20:21:37.415Z,13.60
2022-11-17T20:24:06.401Z,14.20
2022-11-17T20:26:41.143Z,13.10
2022-11-17T20:29:09.521Z,13.60
2022-11-17T20:31:37.692Z,15.30
2022-11-17T20:34:06.178Z,14.20
2022-11-17T20:36:35.661Z,15.70
2022-11-17T20:39:06.200Z,15.20
2022-11-17T20:41:34.802Z,14.10
2022-11-17T20:44:03.532Z,13.60
2022-11-17T20:46:31.653Z,15.70
2022-11-17T20:48:59.655Z,15.90
2022-11-17T20:51:27.828Z,16.00
2022-11-17T20:53:55.992Z,16.20
2022-11-17T20:56:24.227Z,17.80
2022-11-17T20:58:52.320Z,15.40
2022-11-17T21:01:24.358Z,15.00
2022-11-17T21:03:52.697Z,16.70
2022-11-17T21:06:24.177Z,15.80
2022-11-17T21:08:53.020Z,19.00
2022-11-17T21:11:42.514Z,19.00
2022-11-17T21:14:12.912Z,20.30
2022-11-17T21:16:45.787Z,21.80
2022-11-17T21:19:14.534Z,22.60
2022-11-17T21:21:43.979Z,23.10
2022-11-17T21:24:12.519Z,20.60
2022-11-17T21:26:40.635Z,19.00
2022-11-17T21:29:08.834Z,18.60
2022-11-17T21:31:36.921Z,14.20
2022-11-17T21:34:06.889Z,14.80
2022-11-17T21:36:36.735Z,14.00
2022-11-17T21:39:05.286Z,13.50
2022-11-17T21:41:38.921Z,11.20
2022-11-17T21:44:07.488Z,10.30
2022-11-17T21:46:36.622Z,10.80
2022-11-17T21:49:05.314Z,11.00
2022-11-17T21:51:35.379Z,9.50
2022-11-17T21:54:06.712Z,8.80
2022-11-17T21:56:36.353Z,9.40
2022-11-17T21:59:10.057Z,9.40
2022-11-17T22:01:39.716Z,8.60
2022-11-17T22:04:08.966Z,9.40
2022-11-17T22:06:39.343Z,9.70
2022-11-17T22:09:07.990Z,10.30
2022-11-17T22:11:36.671Z,11.00
2022-11-17T22:14:14.968Z,11.30
2022-11-17T22:16:45.721Z,10.10
2022-11-17T22:19:15.991Z,9.10
2022-11-17T22:21:45.886Z,10.70
2022-11-17T22:24:14.185Z,11.10
2022-11-17T22:26:44.392Z,10.40
2022-11-17T22:29:19.340Z,11.60
2022-11-17T22:31:51.562Z,10.30
2022-11-17T22:34:19.597Z,10.80
2022-11-17T22:36:47.539Z,10.00
2022-11-17T22:39:16.514Z,10.30
2022-11-17T22:41:44.841Z,10.40
2022-11-17T22:44:14.670Z,9.90
2022-11-17T22:46:45.856Z,9.30
2022-11-17T22:49:14.059Z,10.20
2022-11-17T22:52:00.885Z,10.30
2022-11-17T22:54:29.430Z,10.70
2022-11-17T22:56:58.415Z,10.70
2022-11-17T22:59:27.874Z,10.90
2022-11-17T23:01:56.512Z,11.50
2022-11-17T23:04:24.778Z,11.30
2022-11-17T23:06:53.289Z,10.40
2022-11-17T23:09:21.572Z,10.20
2022-11-17T23:11:49.691Z,9.10
2022-11-17T23:14:19.098Z,9.50
2022-11-17T23:16:46.978Z,8.70
2022-11-17T23:19:14.936Z,8.50
2022-11-17T23:21:42.992Z,9.30
2022-11-17T23:24:13.192Z,9.10
2022-11-17T23:26:42.707Z,9.60
2022-11-17T23:29:10.904Z,7.90
2022-11-17T23:31:39.287Z,8.50
2022-11-17T23:34:10.940Z,8.60
2022-11-17T23:36:39.253Z,9.20
2022-11-17T23:39:08.522Z,10.50
2022-11-17T23:41:37.300Z,9.10
2022-11-17T23:44:05.695Z,9.80
2022-11-17T23:46:34.051Z,9.10
2022-11-17T23:49:02.624Z,9.00
2022-11-17T23:51:31.012Z,10.00
2022-11-17T23:54:01.051Z,9.60
2022-11-17T23:56:33.826Z,10.50
2022-11-17T23:59:02.202Z,9.60
